TimeCDT,TemperatureF,Dew PointF,Humidity,Sea Level PressureIn,VisibilityMPH,Wind Direction,Wind SpeedMPH,Gust SpeedMPH,PrecipitationIn,Events,Conditions,WindDirDegrees,DateUTC
12:15 AM,50.9,35.1,55,30.30,10.0,East,3.5,-,N/A,,Clear,100,2013-04-22 05:15:00
12:35 AM,51.3,34.7,53,30.31,10.0,Calm,Calm,-,N/A,,Clear,0,2013-04-22 05:35:00
12:55 AM,50.5,35.1,55,30.30,10.0,East,4.6,-,N/A,,Clear,90,2013-04-22 05:55:00
1:15 AM,50.9,34.9,54,30.30,10.0,East,3.5,-,N/A,,Clear,100,2013-04-22 06:15:00
1:35 AM,50.5,35.2,56,30.29,10.0,East,3.5,-,N/A,,Clear,100,2013-04-22 06:35:00
1:55 AM,49.6,35.6,59,30.29,10.0,East,3.5,-,N/A,,Clear,100,2013-04-22 06:55:00
2:15 AM,49.3,35.2,58,30.28,10.0,East,3.5,-,N/A,,Clear,100,2013-04-22 07:15:00
2:35 AM,48.7,35.6,60,30.27,10.0,East,3.5,-,N/A,,Clear,100,2013-04-22 07:35:00
2:55 AM,48.2,35.6,62,30.27,10.0,East,3.5,-,N/A,,Clear,100,2013-04-22 07:55:00
3:15 AM,48.2,35.6,62,30.27,10.0,East,3.5,-,N/A,,Clear,100,2013-04-22 08:15:00
3:35 AM,47.5,35.8,64,30.26,10.0,East,3.5,-,N/A,,Clear,100,2013-04-22 08:35:00
3:55 AM,47.3,35.8,64,30.26,10.0,East,3.5,-,N/A,,Clear,90,2013-04-22 08:55:00
4:15 AM,46.4,35.6,66,30.26,10.0,East,3.5,-,N/A,,Clear,90,2013-04-22 09:15:00
4:35 AM,46.4,35.4,66,30.26,10.0,East,3.5,-,N/A,,Clear,100,2013-04-22 09:35:00
4:55 AM,46.0,35.6,67,30.26,10.0,East,4.6,-,N/A,,Clear,100,2013-04-22 09:55:00
5:15 AM,46.4,35.6,66,30.26,10.0,Calm,Calm,-,N/A,,Clear,0,2013-04-22 10:15:00
5:35 AM,45.5,35.6,68,30.25,10.0,East,4.6,-,N/A,,Clear,100,2013-04-22 10:35:00
5:55 AM,45.5,35.6,68,30.25,10.0,East,3.5,-,N/A,,Clear,100,2013-04-22 10:55:00
6:15 AM,45.0,35.4,69,30.25,10.0,East,4.6,-,N/A,,Clear,90,2013-04-22 11:15:00
6:35 AM,45.3,35.2,68,30.25,10.0,East,4.6,-,N/A,,Clear,100,2013-04-22 11:35:00
6:55 AM,46.4,35.2,65,30.25,10.0,East,4.6,-,N/A,,Clear,90,2013-04-22 11:55:00
7:15 AM,48.0,35.2,61,30.26,10.0,East,4.6,-,N/A,,Clear,100,2013-04-22 12:15:00
7:35 AM,48.9,35.6,60,30.26,10.0,East,6.9,-,N/A,,Clear,100,2013-04-22 12:35:00
7:55 AM,49.8,35.8,59,30.25,10.0,East,5.8,-,N/A,,Clear,100,2013-04-22 12:55:00
8:15 AM,51.1,36.0,56,30.25,10.0,ESE,8.1,-,N/A,,Clear,120,2013-04-22 13:15:00
8:35 AM,52.3,37.0,56,30.25,10.0,ESE,6.9,-,N/A,,Clear,120,2013-04-22 13:35:00
8:55 AM,54.0,37.6,54,30.25,10.0,ESE,9.2,-,N/A,,Clear,120,2013-04-22 13:55:00
9:15 AM,55.2,38.5,53,30.25,10.0,ESE,5.8,-,N/A,,Clear,120,2013-04-22 14:15:00
9:35 AM,57.2,38.7,50,30.24,10.0,ESE,5.8,-,N/A,,Clear,110,2013-04-22 14:35:00
9:55 AM,58.6,39.9,50,30.24,10.0,ESE,4.6,-,N/A,,Clear,120,2013-04-22 14:55:00
10:15 AM,60.1,40.6,49,30.24,10.0,SE,6.9,-,N/A,,Clear,140,2013-04-22 15:15:00
10:35 AM,61.2,41.7,49,30.24,10.0,SE,5.8,-,N/A,,Clear,140,2013-04-22 15:35:00
10:55 AM,62.2,42.1,48,30.23,10.0,SE,4.6,-,N/A,,Clear,140,2013-04-22 15:55:00
11:15 AM,64.0,43.5,47,30.22,10.0,SSE,4.6,-,N/A,,Clear,150,2013-04-22 16:15:00
11:35 AM,64.6,43.9,47,30.22,10.0,South,5.8,-,N/A,,Clear,180,2013-04-22 16:35:00
11:55 AM,65.5,45.3,48,30.21,10.0,SSW,5.8,-,N/A,,Clear,200,2013-04-22 16:55:00
12:15 PM,66.0,43.9,45,30.20,10.0,South,6.9,-,N/A,,Clear,170,2013-04-22 17:15:00
12:35 PM,67.5,45.5,45,30.19,10.0,SSW,4.6,-,N/A,,Clear,200,2013-04-22 17:35:00
12:55 PM,68.0,44.4,43,30.19,10.0,Calm,Calm,-,N/A,,Clear,0,2013-04-22 17:55:00
1:15 PM,68.2,45.1,43,30.18,10.0,South,6.9,-,N/A,,Clear,180,2013-04-22 18:15:00
1:35 PM,69.1,46.4,44,30.17,10.0,SSW,5.8,-,N/A,,Clear,200,2013-04-22 18:35:00
1:55 PM,69.1,43.3,39,30.15,10.0,SSW,3.5,-,N/A,,Clear,200,2013-04-22 18:55:00
2:15 PM,69.6,43.5,39,30.15,10.0,South,5.8,-,N/A,,Clear,190,2013-04-22 19:15:00
2:35 PM,70.2,43.7,38,30.14,10.0,SE,9.2,-,N/A,,Clear,140,2013-04-22 19:35:00
2:55 PM,70.3,44.2,39,30.13,10.0,SSE,6.9,-,N/A,,Clear,150,2013-04-22 19:55:00
3:15 PM,71.2,44.8,39,30.12,10.0,SSE,8.1,-,N/A,,Clear,160,2013-04-22 20:15:00
3:35 PM,70.9,43.5,37,30.10,10.0,SSE,10.4,-,N/A,,Clear,160,2013-04-22 20:35:00
3:55 PM,70.9,44.8,39,30.10,10.0,SE,11.5,17.3,N/A,,Clear,140,2013-04-22 20:55:00
4:15 PM,70.9,44.4,39,30.08,10.0,SE,8.1,-,N/A,,Clear,130,2013-04-22 21:15:00
4:35 PM,71.1,45.5,40,30.08,10.0,ESE,8.1,-,N/A,,Clear,120,2013-04-22 21:35:00
4:55 PM,70.5,44.8,40,30.06,10.0,SE,8.1,-,N/A,,Clear,140,2013-04-22 21:55:00
5:15 PM,70.7,45.3,40,30.06,10.0,ESE,9.2,-,N/A,,Clear,120,2013-04-22 22:15:00
5:35 PM,70.2,45.5,41,30.05,10.0,SE,5.8,-,N/A,,Clear,140,2013-04-22 22:35:00
5:55 PM,69.8,44.8,41,30.05,10.0,SE,8.1,-,N/A,,Clear,130,2013-04-22 22:55:00
6:15 PM,70.2,45.3,41,30.04,10.0,SE,8.1,-,N/A,,Clear,130,2013-04-22 23:15:00
6:35 PM,70.3,45.1,40,30.04,10.0,SE,5.8,-,N/A,,Clear,140,2013-04-22 23:35:00
6:55 PM,69.3,46.0,43,30.04,10.0,SE,8.1,-,N/A,,Clear,140,2013-04-22 23:55:00
7:15 PM,68.4,46.9,46,30.04,10.0,SSE,3.5,-,N/A,,Clear,150,2013-04-23 00:15:00
7:35 PM,68.0,45.9,45,30.04,10.0,SSE,4.6,-,N/A,,Clear,160,2013-04-23 00:35:00
7:55 PM,66.6,45.7,47,30.04,10.0,SSE,3.5,-,N/A,,Clear,150,2013-04-23 00:55:00
8:15 PM,63.3,47.5,56,30.05,10.0,Calm,Calm,-,N/A,,Clear,0,2013-04-23 01:15:00
8:35 PM,62.4,47.5,58,30.05,10.0,Calm,Calm,-,N/A,,Clear,0,2013-04-23 01:35:00
8:55 PM,61.3,47.8,61,30.06,10.0,SE,4.6,-,N/A,,Clear,130,2013-04-23 01:55:00
9:15 PM,61.7,47.5,60,30.07,10.0,Calm,Calm,-,N/A,,Clear,0,2013-04-23 02:15:00
9:35 PM,59.5,48.6,67,30.07,10.0,Calm,Calm,-,N/A,,Clear,0,2013-04-23 02:35:00
9:55 PM,59.9,47.5,64,30.08,10.0,SE,4.6,-,N/A,,Clear,140,2013-04-23 02:55:00
10:15 PM,59.2,48.6,68,30.08,10.0,SE,3.5,-,N/A,,Clear,130,2013-04-23 03:15:00
10:35 PM,60.6,47.1,61,30.07,10.0,SE,4.6,-,N/A,,Clear,130,2013-04-23 03:35:00
10:55 PM,61.3,47.1,60,30.07,10.0,ESE,4.6,-,N/A,,Clear,120,2013-04-23 03:55:00
11:15 PM,61.2,47.5,61,30.06,10.0,SE,5.8,-,N/A,,Scattered Clouds,130,2013-04-23 04:15:00
11:35 PM,62.4,46.8,57,30.06,10.0,SE,4.6,-,N/A,,Mostly Cloudy,130,2013-04-23 04:35:00
11:55 PM,61.9,46.9,58,30.06,10.0,SE,4.6,-,N/A,,Scattered Clouds,140,2013-04-23 04:55:00